createdAt,value
2019-01-26T00:01:45.389Z,51.80
2019-01-26T00:06:21.158Z,51.70
2019-01-26T00:10:56.944Z,53.40
2019-01-26T00:15:32.771Z,54.90
2019-01-26T00:20:09.233Z,55.00
2019-01-26T00:24:44.995Z,53.20
2019-01-26T00:29:20.788Z,52.60
2019-01-26T00:33:56.556Z,50.80
2019-01-26T00:38:32.330Z,51.10
2019-01-26T00:43:08.140Z,51.10
2019-01-26T00:47:44.168Z,50.50
2019-01-26T00:52:19.938Z,51.90
2019-01-26T00:56:55.724Z,50.30
2019-01-26T01:01:31.493Z,49.90
2019-01-26T01:06:07.274Z,49.40
2019-01-26T01:10:43.045Z,49.90
2019-01-26T01:15:19.050Z,48.70
2019-01-26T01:19:54.856Z,50.10
2019-01-26T01:24:30.660Z,49.90
2019-01-26T01:29:06.420Z,51.80
2019-01-26T01:33:43.677Z,50.70
2019-01-26T01:38:19.441Z,52.10
2019-01-26T01:42:55.224Z,51.20
2019-01-26T01:47:30.989Z,52.30
2019-01-26T01:52:06.769Z,52.40
2019-01-26T01:56:42.547Z,54.20
2019-01-26T02:01:18.354Z,56.70
2019-01-26T02:05:54.116Z,57.90
2019-01-26T02:10:29.972Z,58.60
2019-01-26T02:15:06.945Z,59.20
2019-01-26T02:19:42.716Z,60.40
2019-01-26T02:24:18.510Z,59.80
2019-01-26T02:28:54.333Z,59.40
2019-01-26T02:33:30.105Z,60.20
2019-01-26T02:38:05.914Z,60.60
2019-01-26T02:42:41.688Z,60.50
2019-01-26T02:47:17.479Z,61.90
2019-01-26T02:51:53.244Z,61.80
2019-01-26T02:56:29.028Z,62.50
2019-01-26T03:01:04.910Z,62.80
2019-01-26T03:05:40.680Z,63.20
2019-01-26T03:10:18.784Z,64.30
2019-01-26T03:14:54.677Z,64.20
2019-01-26T03:19:30.441Z,65.00
2019-01-26T03:24:06.438Z,63.10
2019-01-26T03:28:42.234Z,64.40
2019-01-26T03:33:18.030Z,63.70
2019-01-26T03:37:53.800Z,64.00
2019-01-26T03:42:29.582Z,65.30
2019-01-26T03:47:05.350Z,64.70
2019-01-26T03:51:41.128Z,64.70
2019-01-26T03:56:16.894Z,64.70
2019-01-26T04:00:52.671Z,64.60
2019-01-26T04:05:28.445Z,65.60
2019-01-26T04:10:04.935Z,65.60
2019-01-26T04:14:40.699Z,66.00
2019-01-26T04:19:16.558Z,64.80
2019-01-26T04:23:52.320Z,66.00
2019-01-26T04:28:28.105Z,67.10
2019-01-26T04:33:03.885Z,67.60
2019-01-26T04:37:39.658Z,66.20
2019-01-26T04:42:15.417Z,66.50
2019-01-26T04:46:51.192Z,66.90
2019-01-26T04:51:26.968Z,67.10
2019-01-26T04:56:02.744Z,66.90
2019-01-26T05:00:38.512Z,67.10
2019-01-26T05:05:14.942Z,68.10
2019-01-26T05:09:50.705Z,69.60
2019-01-26T05:14:26.489Z,69.40
2019-01-26T05:19:02.245Z,69.10
2019-01-26T05:23:38.032Z,69.70
2019-01-26T05:28:13.795Z,70.80
2019-01-26T05:32:49.582Z,70.00
2019-01-26T05:37:25.394Z,70.60
2019-01-26T05:42:01.192Z,69.90
2019-01-26T05:46:36.962Z,71.60
2019-01-26T05:51:12.811Z,72.80
2019-01-26T05:55:48.827Z,72.40
2019-01-26T06:00:30.460Z,72.70
2019-01-26T06:05:06.805Z,72.80
2019-01-26T06:09:42.587Z,71.90
2019-01-26T06:14:18.352Z,73.20
2019-01-26T06:18:54.137Z,73.60
2019-01-26T06:23:29.904Z,73.30
2019-01-26T06:28:05.681Z,71.60
2019-01-26T06:32:41.448Z,72.60
2019-01-26T06:37:17.259Z,73.80
2019-01-26T06:41:53.056Z,74.00
2019-01-26T06:46:28.845Z,71.70
2019-01-26T06:51:05.125Z,71.50
2019-01-26T06:55:40.896Z,72.70
2019-01-26T07:00:19.601Z,71.60
2019-01-26T07:05:03.861Z,72.70
2019-01-26T07:09:39.712Z,73.60
2019-01-26T07:14:15.500Z,74.00
2019-01-26T07:18:51.272Z,73.00
2019-01-26T07:23:27.132Z,73.00
2019-01-26T07:28:02.959Z,72.00
2019-01-26T07:32:38.740Z,73.00
2019-01-26T07:37:14.513Z,70.90
2019-01-26T07:41:50.295Z,72.00
2019-01-26T07:46:26.082Z,70.30
2019-01-26T07:51:01.869Z,71.20
2019-01-26T07:55:37.680Z,71.20
2019-01-26T08:00:17.688Z,71.70
2019-01-26T08:04:53.448Z,70.50
2019-01-26T08:09:29.230Z,70.40
2019-01-26T08:14:06.496Z,69.50
2019-01-26T08:18:42.280Z,67.80
2019-01-26T08:23:18.040Z,69.10
2019-01-26T08:27:53.841Z,70.30
2019-01-26T08:32:29.611Z,70.30
2019-01-26T08:37:05.698Z,71.30
2019-01-26T08:41:41.471Z,71.30
2019-01-26T08:46:17.260Z,70.60
2019-01-26T08:50:53.037Z,68.00
2019-01-26T08:55:28.804Z,68.60
2019-01-26T09:00:06.493Z,67.60
2019-01-26T09:04:42.261Z,68.20
2019-01-26T09:09:18.022Z,65.30
2019-01-26T09:13:53.801Z,67.60
2019-01-26T09:18:29.553Z,65.50
2019-01-26T09:23:05.733Z,66.10
2019-01-26T09:27:41.906Z,66.50
2019-01-26T09:32:17.677Z,65.70
2019-01-26T09:36:53.442Z,65.90
2019-01-26T09:41:29.220Z,64.90
2019-01-26T09:46:05.306Z,65.90
2019-01-26T09:50:41.082Z,65.30
2019-01-26T09:55:17.489Z,66.20
2019-01-26T09:59:53.272Z,66.60
2019-01-26T10:04:29.028Z,65.40
2019-01-26T10:09:09.441Z,64.40
2019-01-26T10:13:45.189Z,65.80
2019-01-26T10:18:20.973Z,65.20
2019-01-26T10:22:56.726Z,64.90
2019-01-26T10:27:32.501Z,62.90
2019-01-26T10:32:08.272Z,64.10
2019-01-26T10:36:53.098Z,63.40
2019-01-26T10:41:50.604Z,64.40
2019-01-26T10:46:26.387Z,63.30
2019-01-26T10:51:02.142Z,64.00
2019-01-26T10:55:37.928Z,63.20
2019-01-26T11:00:16.101Z,63.80
2019-01-26T11:04:51.878Z,63.20
2019-01-26T11:09:27.839Z,64.30
2019-01-26T11:14:03.625Z,64.30
2019-01-26T11:18:39.397Z,64.70
2019-01-26T11:23:15.187Z,63.70
2019-01-26T11:27:50.990Z,65.00
2019-01-26T11:32:26.764Z,64.70
2019-01-26T11:37:02.812Z,65.30
2019-01-26T11:41:39.405Z,63.60
2019-01-26T11:46:32.021Z,64.20
2019-01-26T11:51:25.560Z,64.00
2019-01-26T11:56:16.662Z,63.20
2019-01-26T12:01:11.409Z,63.90
2019-01-26T12:05:55.722Z,62.40
2019-01-26T12:10:31.501Z,61.90
2019-01-26T12:15:10.770Z,61.40
2019-01-26T12:19:46.556Z,62.50
2019-01-26T12:24:22.313Z,62.00
2019-01-26T12:28:58.120Z,61.90
2019-01-26T12:33:33.882Z,61.60
2019-01-26T12:38:09.669Z,62.10
2019-01-26T12:42:45.425Z,63.90
2019-01-26T12:47:21.203Z,62.50
2019-01-26T12:51:57.042Z,62.30
2019-01-26T12:56:34.296Z,61.10
2019-01-26T13:01:10.070Z,62.60
2019-01-26T13:05:45.868Z,62.30
2019-01-26T13:10:25.584Z,62.20
2019-01-26T13:15:01.361Z,61.30
2019-01-26T13:19:37.278Z,62.60
2019-01-26T13:24:13.573Z,62.20
2019-01-26T13:28:49.336Z,61.20
2019-01-26T13:33:25.108Z,62.00
2019-01-26T13:38:00.868Z,61.40
2019-01-26T13:42:36.659Z,61.40
2019-01-26T13:47:12.407Z,60.50
2019-01-26T13:51:48.217Z,60.00
2019-01-26T13:56:23.976Z,59.30
2019-01-26T14:00:59.776Z,61.00
2019-01-26T14:05:35.528Z,60.10
2019-01-26T14:10:13.017Z,59.80
2019-01-26T14:14:48.776Z,60.00
2019-01-26T14:19:24.576Z,60.20
2019-01-26T14:24:00.326Z,60.50
2019-01-26T14:28:36.124Z,60.50
2019-01-26T14:33:12.981Z,60.60
2019-01-26T14:37:48.760Z,62.10
2019-01-26T14:42:24.512Z,61.00
2019-01-26T14:47:00.292Z,59.70
2019-01-26T14:51:36.049Z,61.30
2019-01-26T14:56:11.828Z,61.40
2019-01-26T15:00:47.600Z,60.80
2019-01-26T15:05:23.592Z,60.50
2019-01-26T15:09:59.352Z,60.70
2019-01-26T15:14:35.200Z,60.90
2019-01-26T15:19:10.960Z,60.90
2019-01-26T15:23:46.736Z,61.50
2019-01-26T15:28:22.500Z,62.50
2019-01-26T15:32:58.289Z,62.70
2019-01-26T15:37:34.049Z,62.20
2019-01-26T15:42:09.824Z,62.60
2019-01-26T15:46:45.581Z,62.50
2019-01-26T15:51:21.365Z,62.70
2019-01-26T15:55:57.129Z,63.40
2019-01-26T16:00:35.505Z,63.60
2019-01-26T16:05:11.340Z,64.00
2019-01-26T16:09:47.124Z,64.20
2019-01-26T16:14:22.887Z,64.40
2019-01-26T16:18:58.701Z,65.40
2019-01-26T16:23:37.459Z,65.80
2019-01-26T16:28:13.279Z,67.00
2019-01-26T16:32:49.429Z,68.60
2019-01-26T16:37:25.197Z,69.00
2019-01-26T16:42:01.016Z,68.40
2019-01-26T16:46:36.801Z,69.20
2019-01-26T16:51:12.552Z,70.20
2019-01-26T16:55:48.338Z,70.60
2019-01-26T17:00:44.588Z,71.10
2019-01-26T17:05:25.782Z,70.50
2019-01-26T17:09:57.818Z,70.50
2019-01-26T17:14:33.604Z,69.80
2019-01-26T17:19:09.353Z,70.20
2019-01-26T17:23:45.160Z,69.80
2019-01-26T17:28:20.912Z,69.40
2019-01-26T17:32:56.705Z,69.40
2019-01-26T17:37:32.447Z,68.90
2019-01-26T17:42:08.219Z,68.90
2019-01-26T17:46:43.985Z,68.90
2019-01-26T17:51:19.762Z,68.80
2019-01-26T17:55:55.525Z,69.00
2019-01-26T18:00:47.669Z,68.60
2019-01-26T18:05:23.628Z,68.80
2019-01-26T18:09:59.443Z,69.00
2019-01-26T18:14:35.243Z,68.30
2019-01-26T18:19:11.017Z,68.60
2019-01-26T18:23:46.779Z,68.80
2019-01-26T18:28:22.584Z,68.40
2019-01-26T18:32:58.360Z,68.60
2019-01-26T18:37:34.144Z,69.10
2019-01-26T18:42:09.905Z,68.60
2019-01-26T18:46:45.709Z,69.00
2019-01-26T18:51:21.473Z,67.90
2019-01-26T18:55:57.246Z,68.50
2019-01-26T19:00:36.636Z,69.00
2019-01-26T19:05:14.209Z,68.80
2019-01-26T19:09:49.968Z,68.20
2019-01-26T19:14:25.822Z,67.80
2019-01-26T19:19:01.571Z,67.90
2019-01-26T19:23:37.352Z,68.30
2019-01-26T19:28:13.125Z,69.00
2019-01-26T19:32:48.962Z,69.60
2019-01-26T19:37:24.726Z,70.00
2019-01-26T19:42:00.509Z,71.30
2019-01-26T19:46:36.278Z,70.30
2019-01-26T19:51:12.057Z,70.30
2019-01-26T19:55:47.821Z,69.90
2019-01-26T20:00:23.614Z,69.30
2019-01-26T20:05:00.468Z,70.20
2019-01-26T20:09:36.254Z,70.60
2019-01-26T20:14:12.016Z,71.10
2019-01-26T20:18:47.792Z,71.00
2019-01-26T20:23:23.547Z,70.70
2019-01-26T20:27:59.324Z,71.10
2019-01-26T20:32:35.077Z,71.30
2019-01-26T20:37:10.928Z,71.30
2019-01-26T20:41:46.708Z,71.60
2019-01-26T20:46:22.501Z,71.70
2019-01-26T20:50:58.246Z,71.30
2019-01-26T20:55:34.029Z,71.10
2019-01-26T21:00:30.178Z,71.10
2019-01-26T21:05:07.204Z,72.00
2019-01-26T21:09:42.957Z,72.70
2019-01-26T21:14:18.729Z,73.70
2019-01-26T21:18:54.486Z,74.40
2019-01-26T21:23:30.286Z,74.30
2019-01-26T21:28:06.069Z,74.40
2019-01-26T21:32:43.320Z,74.00
2019-01-26T21:37:19.077Z,74.20
2019-01-26T21:41:54.897Z,73.90
2019-01-26T21:46:30.662Z,73.80
2019-01-26T21:51:06.446Z,73.70
2019-01-26T21:55:42.201Z,73.90
2019-01-26T22:00:20.620Z,73.70
2019-01-26T22:04:56.378Z,73.70
2019-01-26T22:09:33.931Z,73.90
2019-01-26T22:14:10.188Z,74.30
2019-01-26T22:18:45.964Z,74.40
2019-01-26T22:23:21.712Z,74.40
2019-01-26T22:27:58.350Z,74.00
2019-01-26T22:32:34.102Z,73.70
2019-01-26T22:37:10.069Z,73.70
2019-01-26T22:41:46.229Z,73.50
2019-01-26T22:46:22.057Z,73.60
2019-01-26T22:50:57.811Z,74.20
2019-01-26T22:55:33.587Z,74.20
2019-01-26T23:00:56.021Z,74.60
2019-01-26T23:05:52.540Z,74.50
2019-01-26T23:11:09.752Z,74.30
2019-01-26T23:16:25.810Z,74.50
2019-01-26T23:21:44.730Z,74.50
2019-01-26T23:26:47.973Z,74.60
2019-01-26T23:31:23.743Z,75.10
2019-01-26T23:35:59.520Z,75.50
2019-01-26T23:40:35.265Z,75.00
2019-01-26T23:45:11.344Z,75.40
2019-01-26T23:49:47.117Z,74.10
2019-01-26T23:54:22.905Z,73.40
2019-01-26T23:58:58.658Z,74.20
